createdAt,value
2018-10-03T00:01:54.946Z,11.50
2018-10-03T00:04:22.787Z,11.50
2018-10-03T00:06:50.619Z,11.50
2018-10-03T00:09:19.214Z,11.60
2018-10-03T00:11:47.023Z,11.60
2018-10-03T00:14:14.864Z,11.60
2018-10-03T00:16:42.786Z,11.60
2018-10-03T00:19:10.620Z,11.60
2018-10-03T00:21:38.481Z,11.50
2018-10-03T00:24:06.388Z,11.60
2018-10-03T00:26:34.225Z,11.60
2018-10-03T00:29:02.427Z,11.60
2018-10-03T00:31:30.231Z,11.60
2018-10-03T00:33:58.107Z,11.70
2018-10-03T00:36:25.997Z,11.70
2018-10-03T00:38:54.595Z,11.70
2018-10-03T00:41:22.427Z,11.70
2018-10-03T00:43:50.294Z,11.70
2018-10-03T00:46:18.148Z,11.60
2018-10-03T00:48:46.000Z,11.60
2018-10-03T00:51:14.150Z,11.60
2018-10-03T00:53:42.318Z,11.60
2018-10-03T00:56:10.236Z,11.60
2018-10-03T00:58:38.146Z,11.60
2018-10-03T01:01:06.296Z,11.60
2018-10-03T01:03:34.108Z,11.60
2018-10-03T01:06:01.969Z,11.60
2018-10-03T01:08:29.827Z,11.60
2018-10-03T01:10:57.655Z,11.60
2018-10-03T01:13:25.456Z,11.70
2018-10-03T01:15:53.283Z,11.70
2018-10-03T01:18:21.090Z,11.70
2018-10-03T01:20:49.150Z,11.60
2018-10-03T01:23:17.246Z,11.60
2018-10-03T01:25:45.198Z,11.60
2018-10-03T01:28:13.379Z,11.60
2018-10-03T01:30:41.240Z,11.70
2018-10-03T01:33:09.075Z,11.70
2018-10-03T01:35:36.946Z,11.70
2018-10-03T01:38:04.867Z,11.70
2018-10-03T01:40:32.697Z,11.70
2018-10-03T01:43:00.536Z,11.70
2018-10-03T01:45:32.993Z,11.70
2018-10-03T01:48:01.589Z,11.70
2018-10-03T01:50:29.441Z,11.60
2018-10-03T01:52:57.323Z,11.70
2018-10-03T01:55:25.191Z,11.70
2018-10-03T01:57:53.008Z,11.70
2018-10-03T02:00:20.853Z,11.70
2018-10-03T02:02:48.711Z,11.70
2018-10-03T02:05:16.539Z,11.80
2018-10-03T02:07:44.678Z,11.70
2018-10-03T02:10:12.498Z,11.80
2018-10-03T02:12:40.322Z,11.70
2018-10-03T02:15:08.195Z,11.70
2018-10-03T02:17:36.014Z,11.80
2018-10-03T02:20:04.523Z,11.80
2018-10-03T02:22:32.437Z,11.80
2018-10-03T02:25:00.273Z,11.80
2018-10-03T02:27:28.164Z,11.80
2018-10-03T02:29:56.292Z,11.90
2018-10-03T02:32:24.168Z,11.80
2018-10-03T02:34:52.012Z,11.90
2018-10-03T02:37:19.898Z,11.90
2018-10-03T02:39:47.740Z,11.90
2018-10-03T02:42:15.559Z,11.90
2018-10-03T02:44:43.407Z,11.90
2018-10-03T02:47:11.305Z,12.00
2018-10-03T02:49:39.144Z,11.90
2018-10-03T02:52:07.225Z,11.90
2018-10-03T02:54:35.073Z,11.90
2018-10-03T02:57:02.905Z,12.00
2018-10-03T02:59:30.709Z,12.00
2018-10-03T03:01:58.522Z,12.00
2018-10-03T03:04:26.401Z,12.00
2018-10-03T03:06:54.244Z,11.90
2018-10-03T03:09:22.053Z,11.90
2018-10-03T03:11:49.877Z,11.90
2018-10-03T03:14:17.724Z,11.90
2018-10-03T03:16:45.632Z,11.90
2018-10-03T03:19:13.469Z,11.90
2018-10-03T03:21:41.329Z,11.90
2018-10-03T03:24:09.187Z,11.90
2018-10-03T03:26:37.034Z,11.90
2018-10-03T03:29:04.887Z,11.90
2018-10-03T03:31:32.737Z,11.80
2018-10-03T03:34:00.524Z,11.80
2018-10-03T03:36:28.377Z,11.90
2018-10-03T03:38:56.259Z,11.80
2018-10-03T03:41:24.085Z,11.80
2018-10-03T03:43:52.231Z,11.70
2018-10-03T03:46:20.054Z,11.70
2018-10-03T03:48:48.116Z,11.80
2018-10-03T03:51:15.930Z,11.80
2018-10-03T03:53:43.740Z,11.80
2018-10-03T03:56:11.872Z,11.90
2018-10-03T03:58:39.677Z,11.90
2018-10-03T04:01:07.496Z,11.80
2018-10-03T04:03:35.355Z,11.90
2018-10-03T04:06:03.222Z,11.80
2018-10-03T04:08:31.051Z,11.80
2018-10-03T04:10:59.119Z,11.80
2018-10-03T04:13:26.968Z,11.90
2018-10-03T04:15:54.846Z,11.90
2018-10-03T04:18:22.721Z,11.80
2018-10-03T04:20:50.584Z,11.80
2018-10-03T04:23:18.441Z,11.80
2018-10-03T04:25:46.271Z,11.80
2018-10-03T04:28:14.404Z,11.70
2018-10-03T04:30:42.260Z,11.80
2018-10-03T04:33:10.068Z,11.90
2018-10-03T04:35:37.945Z,11.90
2018-10-03T04:38:05.869Z,12.00
2018-10-03T04:40:33.728Z,11.90
2018-10-03T04:43:01.604Z,11.90
2018-10-03T04:45:29.428Z,11.90
2018-10-03T04:47:57.229Z,11.90
2018-10-03T04:50:25.047Z,12.00
2018-10-03T04:52:53.153Z,12.00
2018-10-03T04:55:20.965Z,12.00
2018-10-03T04:57:49.127Z,12.10
2018-10-03T05:00:17.003Z,12.10
2018-10-03T05:02:44.843Z,12.00
2018-10-03T05:05:12.715Z,12.00
2018-10-03T05:07:40.620Z,12.00
2018-10-03T05:10:08.529Z,12.00
2018-10-03T05:12:36.381Z,12.10
2018-10-03T05:15:04.284Z,12.00
2018-10-03T05:17:32.193Z,12.10
2018-10-03T05:20:00.012Z,12.10
2018-10-03T05:22:27.881Z,12.20
2018-10-03T05:24:55.792Z,12.10
2018-10-03T05:27:23.616Z,12.20
2018-10-03T05:29:51.491Z,12.10
2018-10-03T05:32:19.302Z,12.00
2018-10-03T05:34:47.426Z,12.10
2018-10-03T05:37:15.260Z,12.30
2018-10-03T05:39:43.189Z,12.20
2018-10-03T05:42:11.000Z,12.20
2018-10-03T05:44:38.918Z,12.00
2018-10-03T05:47:06.760Z,12.10
2018-10-03T05:49:34.682Z,12.10
2018-10-03T05:52:02.529Z,12.10
2018-10-03T05:54:30.344Z,12.20
2018-10-03T05:56:58.226Z,12.20
2018-10-03T05:59:26.109Z,12.20
2018-10-03T06:01:54.258Z,12.30
2018-10-03T06:04:22.147Z,12.40
2018-10-03T06:06:50.016Z,12.40
2018-10-03T06:09:17.847Z,12.40
2018-10-03T06:11:45.829Z,12.40
2018-10-03T06:14:13.717Z,12.20
2018-10-03T06:16:41.974Z,12.10
2018-10-03T06:19:09.830Z,12.20
2018-10-03T06:21:37.730Z,12.30
2018-10-03T06:24:05.587Z,12.20
2018-10-03T06:26:33.403Z,12.30
2018-10-03T06:29:01.362Z,12.40
2018-10-03T06:31:29.236Z,12.40
2018-10-03T06:33:57.097Z,12.40
2018-10-03T06:36:24.912Z,12.40
2018-10-03T06:38:52.781Z,12.30
2018-10-03T06:41:20.653Z,12.30
2018-10-03T06:43:48.496Z,12.40
2018-10-03T06:46:16.337Z,12.40
2018-10-03T06:48:44.144Z,12.50
2018-10-03T06:51:11.993Z,12.70
2018-10-03T06:53:39.851Z,12.70
2018-10-03T06:56:07.949Z,12.80
2018-10-03T06:58:35.789Z,12.80
2018-10-03T07:01:03.683Z,12.80
2018-10-03T07:03:31.540Z,12.80
2018-10-03T07:05:59.462Z,12.90
2018-10-03T07:08:27.388Z,12.90
2018-10-03T07:10:55.251Z,13.00
2018-10-03T07:13:23.113Z,12.90
2018-10-03T07:15:50.988Z,13.00
2018-10-03T07:18:18.814Z,13.10
2018-10-03T07:20:46.650Z,13.20
2018-10-03T07:23:14.469Z,13.20
2018-10-03T07:25:42.409Z,13.20
2018-10-03T07:28:10.235Z,13.10
2018-10-03T07:30:38.092Z,13.20
2018-10-03T07:33:06.109Z,13.20
2018-10-03T07:35:33.953Z,13.40
2018-10-03T07:38:01.839Z,13.40
2018-10-03T07:40:29.707Z,13.40
2018-10-03T07:42:57.581Z,13.40
2018-10-03T07:45:25.478Z,13.40
2018-10-03T07:47:53.308Z,13.50
2018-10-03T07:50:21.221Z,13.60
2018-10-03T07:52:49.070Z,13.50
2018-10-03T07:55:16.952Z,13.40
2018-10-03T07:57:44.821Z,13.40
2018-10-03T08:00:12.817Z,13.30
2018-10-03T08:02:40.690Z,13.20
2018-10-03T08:05:08.595Z,13.30
2018-10-03T08:07:36.449Z,13.50
2018-10-03T08:10:04.455Z,13.70
2018-10-03T08:12:32.236Z,13.80
2018-10-03T08:15:00.105Z,13.80
2018-10-03T08:17:28.047Z,13.90
2018-10-03T08:19:55.843Z,14.00
2018-10-03T08:22:23.712Z,14.10
2018-10-03T08:24:51.642Z,14.30
2018-10-03T08:27:19.586Z,14.30
2018-10-03T08:38:47.975Z,14.30
2018-10-03T08:41:15.737Z,14.40
2018-10-03T08:43:43.581Z,14.60
2018-10-03T08:46:11.477Z,14.60
2018-10-03T08:48:39.320Z,14.60
2018-10-03T08:51:07.198Z,14.70
2018-10-03T08:53:35.158Z,14.80
2018-10-03T08:56:03.046Z,14.70
2018-10-03T08:58:31.388Z,14.50
2018-10-03T09:00:59.135Z,14.50
2018-10-03T09:03:26.980Z,14.60
2018-10-03T09:05:54.838Z,14.60
2018-10-03T09:08:22.705Z,14.80
2018-10-03T09:10:50.797Z,14.90
2018-10-03T09:13:18.627Z,15.10
2018-10-03T09:15:46.745Z,15.00
2018-10-03T09:18:14.598Z,15.00
2018-10-03T09:20:42.481Z,15.00
2018-10-03T09:23:10.317Z,14.90
2018-10-03T09:25:38.132Z,14.70
2018-10-03T09:28:06.004Z,14.60
2018-10-03T09:30:33.838Z,14.60
2018-10-03T09:33:01.670Z,14.50
2018-10-03T09:35:29.515Z,14.60
2018-10-03T09:37:57.375Z,14.70
2018-10-03T09:40:25.275Z,14.70
2018-10-03T09:42:53.149Z,14.70
2018-10-03T09:45:21.023Z,14.60
2018-10-03T09:47:48.835Z,14.50
2018-10-03T09:50:16.714Z,14.10
2018-10-03T09:52:44.903Z,14.10
2018-10-03T09:55:12.772Z,13.90
2018-10-03T09:57:41.244Z,13.70
2018-10-03T10:00:09.111Z,13.50
2018-10-03T10:02:37.517Z,13.30
2018-10-03T10:05:05.457Z,13.20
2018-10-03T10:07:33.634Z,13.20
2018-10-03T10:10:01.467Z,13.00
2018-10-03T10:12:29.289Z,12.90
2018-10-03T10:14:57.105Z,12.80
2018-10-03T10:17:25.314Z,12.90
2018-10-03T10:19:53.171Z,12.80
2018-10-03T10:22:21.019Z,12.80
2018-10-03T10:24:48.860Z,12.40
2018-10-03T10:27:16.686Z,12.00
2018-10-03T10:29:44.502Z,11.80
2018-10-03T10:32:12.760Z,11.80
2018-10-03T10:34:40.556Z,11.90
2018-10-03T10:37:08.449Z,12.00
2018-10-03T10:39:36.334Z,12.00
2018-10-03T10:42:04.310Z,12.20
2018-10-03T10:44:32.243Z,12.30
2018-10-03T10:47:00.181Z,12.60
2018-10-03T10:49:28.040Z,12.80
2018-10-03T10:51:56.159Z,12.90
2018-10-03T10:54:24.002Z,13.10
2018-10-03T10:56:51.863Z,13.10
2018-10-03T10:59:20.067Z,13.30
2018-10-03T11:01:47.895Z,13.60
2018-10-03T11:04:15.789Z,14.00
2018-10-03T11:06:43.769Z,14.10
2018-10-03T11:09:11.549Z,14.40
2018-10-03T11:11:39.409Z,14.50
2018-10-03T11:14:07.574Z,14.80
2018-10-03T11:16:35.432Z,14.80
2018-10-03T11:19:03.268Z,14.90
2018-10-03T11:21:31.229Z,15.00
2018-10-03T11:23:59.295Z,15.30
2018-10-03T11:26:27.020Z,15.40
2018-10-03T11:28:54.892Z,15.30
2018-10-03T11:31:22.733Z,15.20
2018-10-03T11:33:50.599Z,15.40
2018-10-03T11:36:18.489Z,15.40
2018-10-03T11:38:46.377Z,15.60
2018-10-03T11:41:14.510Z,15.70
2018-10-03T11:43:42.386Z,15.70
2018-10-03T11:46:10.244Z,15.60
2018-10-03T11:48:38.089Z,15.80
2018-10-03T11:51:05.956Z,15.70
2018-10-03T11:53:33.813Z,15.80
2018-10-03T11:56:01.617Z,15.70
2018-10-03T11:58:29.516Z,16.00
2018-10-03T12:00:57.448Z,16.00
2018-10-03T12:03:25.383Z,16.10
2018-10-03T12:05:53.174Z,16.10
2018-10-03T12:08:21.032Z,16.10
2018-10-03T12:10:48.896Z,16.10
2018-10-03T12:13:16.801Z,16.20
2018-10-03T12:15:44.641Z,16.40
2018-10-03T12:18:12.799Z,16.30
2018-10-03T12:20:40.690Z,16.20
2018-10-03T12:23:08.534Z,16.30
2018-10-03T12:25:36.706Z,16.50
2018-10-03T12:28:04.781Z,16.50
2018-10-03T12:30:33.545Z,16.20
2018-10-03T12:33:01.388Z,16.00
2018-10-03T12:35:34.343Z,15.70
2018-10-03T12:38:02.635Z,15.60
2018-10-03T12:40:30.997Z,15.70
2018-10-03T12:42:58.846Z,15.80
2018-10-03T12:45:27.267Z,16.00
2018-10-03T12:47:55.331Z,16.40
2018-10-03T12:50:23.149Z,16.50
2018-10-03T12:52:50.997Z,16.60
2018-10-03T12:55:18.869Z,16.40
2018-10-03T12:57:46.979Z,16.40
2018-10-03T13:00:15.020Z,16.40
2018-10-03T13:02:42.896Z,16.30
2018-10-03T13:05:10.723Z,16.50
2018-10-03T13:07:38.546Z,16.50
2018-10-03T13:10:06.707Z,16.40
2018-10-03T13:12:34.880Z,16.20
2018-10-03T13:15:02.781Z,16.00
2018-10-03T13:17:30.609Z,16.00
2018-10-03T13:19:58.706Z,15.90
2018-10-03T13:22:26.520Z,16.00
2018-10-03T13:24:54.374Z,16.20
2018-10-03T13:27:22.267Z,16.30
2018-10-03T13:29:50.124Z,16.40
2018-10-03T13:32:17.987Z,16.40
2018-10-03T13:34:45.838Z,16.70
2018-10-03T13:37:13.747Z,16.80
2018-10-03T13:39:41.849Z,16.70
2018-10-03T13:42:09.928Z,16.60
2018-10-03T13:44:37.763Z,16.30
2018-10-03T13:47:05.371Z,16.30
2018-10-03T13:49:33.188Z,16.30
2018-10-03T13:52:01.296Z,16.50
2018-10-03T13:54:29.177Z,16.80
2018-10-03T13:56:57.317Z,17.00
2018-10-03T13:59:25.159Z,17.00
2018-10-03T14:01:53.127Z,17.00
2018-10-03T14:04:21.126Z,17.10
2018-10-03T14:06:48.985Z,16.90
2018-10-03T14:09:17.100Z,16.60
2018-10-03T14:11:44.943Z,16.40
2018-10-03T14:14:12.809Z,16.30
2018-10-03T14:16:40.672Z,16.20
2018-10-03T14:19:08.559Z,16.20
2018-10-03T14:21:36.398Z,16.20
2018-10-03T14:24:04.247Z,16.00
2018-10-03T14:26:32.149Z,15.90
2018-10-03T14:28:59.993Z,15.80
2018-10-03T14:31:27.850Z,15.70
2018-10-03T14:33:55.693Z,15.70
2018-10-03T14:36:23.560Z,15.60
2018-10-03T14:38:51.475Z,15.50
2018-10-03T14:41:19.347Z,15.50
2018-10-03T14:43:47.253Z,15.60
2018-10-03T14:46:15.109Z,15.50
2018-10-03T14:48:43.028Z,15.70
2018-10-03T14:51:10.885Z,15.60
2018-10-03T14:53:38.767Z,15.40
2018-10-03T14:56:07.305Z,15.30
2018-10-03T14:58:35.248Z,15.40
2018-10-03T15:01:03.065Z,15.50
2018-10-03T15:03:30.866Z,15.50
2018-10-03T15:05:59.020Z,15.70
2018-10-03T15:08:26.869Z,15.70
2018-10-03T15:10:54.719Z,15.70
2018-10-03T15:13:22.552Z,15.70
2018-10-03T15:15:50.501Z,15.60
2018-10-03T15:18:18.471Z,15.60
2018-10-03T15:20:46.373Z,15.60
2018-10-03T15:23:14.262Z,15.50
2018-10-03T15:25:42.174Z,15.50
2018-10-03T15:28:09.996Z,15.50
2018-10-03T15:30:37.899Z,15.50
2018-10-03T15:33:05.896Z,15.60
2018-10-03T15:35:33.881Z,15.60
2018-10-03T15:38:01.615Z,15.50
2018-10-03T15:40:29.555Z,15.50
2018-10-03T15:42:57.477Z,15.50
2018-10-03T15:45:25.365Z,15.60
2018-10-03T15:47:53.274Z,15.50
2018-10-03T15:50:21.138Z,15.40
2018-10-03T15:52:49.031Z,15.40
2018-10-03T15:55:16.898Z,15.30
2018-10-03T15:57:44.777Z,15.20
2018-10-03T16:00:12.698Z,15.20
2018-10-03T16:02:40.512Z,15.20
2018-10-03T16:05:08.432Z,15.10
2018-10-03T16:07:36.263Z,15.10
2018-10-03T16:10:04.187Z,15.00
2018-10-03T16:12:32.053Z,15.10
2018-10-03T16:14:59.957Z,14.90
2018-10-03T16:17:27.756Z,14.90
2018-10-03T16:19:55.888Z,14.90
2018-10-03T16:22:23.720Z,14.80
2018-10-03T16:24:51.531Z,14.80
2018-10-03T16:27:19.346Z,14.80
2018-10-03T16:29:47.203Z,14.70
2018-10-03T16:32:15.045Z,14.70
2018-10-03T16:34:43.874Z,14.70
2018-10-03T16:37:12.596Z,14.60
2018-10-03T16:39:41.505Z,14.60
2018-10-03T16:42:09.342Z,14.60
2018-10-03T16:44:37.195Z,14.50
2018-10-03T16:47:06.063Z,14.60
2018-10-03T16:49:34.610Z,14.60
2018-10-03T16:52:02.456Z,14.60
2018-10-03T16:54:30.991Z,14.60
2018-10-03T16:56:58.810Z,14.50
2018-10-03T16:59:26.691Z,14.50
2018-10-03T17:01:54.531Z,14.50
2018-10-03T17:04:23.192Z,14.40
2018-10-03T17:06:51.034Z,14.50
2018-10-03T17:09:19.160Z,14.50
2018-10-03T17:11:47.291Z,14.50
2018-10-03T17:14:32.112Z,14.40
2018-10-03T17:16:59.989Z,14.40
2018-10-03T17:19:28.420Z,14.40
2018-10-03T17:21:57.611Z,14.40
2018-10-03T17:24:27.304Z,14.30
2018-10-03T17:26:55.517Z,14.30
2018-10-03T17:29:23.756Z,14.30
2018-10-03T17:31:51.669Z,14.30
2018-10-03T17:34:20.256Z,14.30
2018-10-03T17:36:49.632Z,14.30
2018-10-03T17:39:17.935Z,14.30
2018-10-03T17:41:46.111Z,14.30
2018-10-03T17:44:14.882Z,14.30
2018-10-03T17:46:42.884Z,14.30
2018-10-03T17:49:11.823Z,14.30
2018-10-03T17:51:40.818Z,14.30
2018-10-03T17:54:10.586Z,14.30
2018-10-03T17:56:38.473Z,14.20
2018-10-03T17:59:07.579Z,14.10
2018-10-03T18:01:37.339Z,14.10
2018-10-03T18:04:05.288Z,14.00
2018-10-03T18:06:33.475Z,13.90
2018-10-03T18:09:01.368Z,13.80
2018-10-03T18:11:29.218Z,13.70
2018-10-03T18:13:57.628Z,13.60
2018-10-03T18:16:25.985Z,13.60
2018-10-03T18:18:53.875Z,13.50
2018-10-03T18:21:21.941Z,13.50
2018-10-03T18:23:49.844Z,13.40
2018-10-03T18:26:17.937Z,13.40
2018-10-03T18:28:45.754Z,13.40
2018-10-03T18:31:13.614Z,13.30
2018-10-03T18:33:41.564Z,13.40
2018-10-03T18:36:10.385Z,13.30
2018-10-03T18:38:38.246Z,13.30
2018-10-03T18:41:06.098Z,13.20
2018-10-03T18:43:34.174Z,13.10
2018-10-03T18:46:02.008Z,13.10
2018-10-03T18:48:29.835Z,13.10
2018-10-03T18:50:57.665Z,13.10
2018-10-03T18:53:25.530Z,13.00
2018-10-03T18:55:54.168Z,12.90
2018-10-03T18:58:23.397Z,12.80
2018-10-03T19:00:55.189Z,12.80
2018-10-03T19:03:23.800Z,12.70
2018-10-03T19:05:53.004Z,12.70
2018-10-03T19:08:21.324Z,12.60
2018-10-03T19:10:49.207Z,12.50
2018-10-03T19:13:17.685Z,12.40
2018-10-03T19:15:46.102Z,12.30
2018-10-03T19:18:14.051Z,12.30
2018-10-03T19:20:41.926Z,12.20
2018-10-03T19:23:09.745Z,12.20
2018-10-03T19:25:37.553Z,12.20
2018-10-03T19:28:07.149Z,12.20
2018-10-03T19:30:34.983Z,12.20
2018-10-03T19:33:03.121Z,12.20
2018-10-03T19:35:31.686Z,12.20
2018-10-03T19:37:59.508Z,12.20
2018-10-03T19:40:28.406Z,12.20
2018-10-03T19:42:56.292Z,12.20
2018-10-03T19:45:24.178Z,12.20
2018-10-03T19:47:58.222Z,12.20
2018-10-03T19:50:26.016Z,12.20
2018-10-03T19:52:54.228Z,12.10
2018-10-03T19:55:23.098Z,12.10
2018-10-03T19:57:51.047Z,12.10
2018-10-03T20:00:18.936Z,12.10
2018-10-03T20:02:47.477Z,12.00
2018-10-03T20:05:15.329Z,12.00
2018-10-03T20:07:43.177Z,12.00
2018-10-03T20:10:11.009Z,11.90
2018-10-03T20:12:38.878Z,11.80
2018-10-03T20:15:06.914Z,11.70
2018-10-03T20:17:35.435Z,11.60
2018-10-03T20:20:03.297Z,11.50
2018-10-03T20:22:31.179Z,11.40
2018-10-03T20:24:59.032Z,11.40
2018-10-03T20:27:27.197Z,11.30
2018-10-03T20:29:54.994Z,11.20
2018-10-03T20:32:22.854Z,11.10
2018-10-03T20:34:50.727Z,11.10
2018-10-03T20:37:18.636Z,11.10
2018-10-03T20:39:46.549Z,11.20
2018-10-03T20:42:14.450Z,11.20
2018-10-03T20:44:42.327Z,11.10
2018-10-03T20:47:10.237Z,11.10
2018-10-03T20:49:38.135Z,11.10
2018-10-03T20:52:06.078Z,11.00
2018-10-03T20:54:33.934Z,11.00
2018-10-03T20:57:01.927Z,10.90
2018-10-03T20:59:29.825Z,10.80
2018-10-03T21:01:57.725Z,10.80
2018-10-03T21:04:25.634Z,10.70
2018-10-03T21:06:53.499Z,10.70
2018-10-03T21:09:21.386Z,10.70
2018-10-03T21:11:49.339Z,10.70
2018-10-03T21:14:17.218Z,10.70
2018-10-03T21:16:45.108Z,10.70
2018-10-03T21:19:12.994Z,10.80
2018-10-03T21:21:40.895Z,10.80
2018-10-03T21:24:08.795Z,10.80
2018-10-03T21:26:36.627Z,10.90
2018-10-03T21:29:04.719Z,10.90
2018-10-03T21:31:32.671Z,10.80
2018-10-03T21:34:00.545Z,10.70
2018-10-03T21:36:28.455Z,10.50
2018-10-03T21:38:56.414Z,10.40
2018-10-03T21:41:24.298Z,10.30
2018-10-03T21:43:52.188Z,10.20
2018-10-03T21:46:20.078Z,10.20
2018-10-03T21:48:48.059Z,10.10
2018-10-03T21:51:15.937Z,10.20
2018-10-03T21:53:43.811Z,10.40
2018-10-03T21:56:11.641Z,10.40
2018-10-03T21:58:39.504Z,10.50
2018-10-03T22:01:07.524Z,10.50
2018-10-03T22:03:35.407Z,10.60
2018-10-03T22:06:03.272Z,10.50
2018-10-03T22:08:31.109Z,10.60
2018-10-03T22:10:58.942Z,10.60
2018-10-03T22:13:26.756Z,10.70
2018-10-03T22:15:54.613Z,10.80
2018-10-03T22:18:22.468Z,10.90
2018-10-03T22:20:50.306Z,11.10
2018-10-03T22:23:18.421Z,11.20
2018-10-03T22:25:46.278Z,11.30
2018-10-03T22:28:14.110Z,11.40
2018-10-03T22:30:41.924Z,11.40
2018-10-03T22:33:09.794Z,11.50
2018-10-03T22:35:37.640Z,11.50
2018-10-03T22:38:05.475Z,11.50
2018-10-03T22:40:33.340Z,11.60
2018-10-03T22:43:01.155Z,11.60
2018-10-03T22:45:28.988Z,11.70
2018-10-03T22:47:56.809Z,11.70
2018-10-03T22:50:24.652Z,11.70
2018-10-03T22:52:52.599Z,11.70
2018-10-03T22:55:20.448Z,11.70
2018-10-03T22:57:48.537Z,11.50
2018-10-03T23:00:16.462Z,11.50
2018-10-03T23:02:44.357Z,11.40
2018-10-03T23:05:12.249Z,11.50
2018-10-03T23:07:40.080Z,11.50
2018-10-03T23:10:08.322Z,11.60
2018-10-03T23:12:36.168Z,11.50
2018-10-03T23:15:04.180Z,11.40
2018-10-03T23:17:32.070Z,11.30
2018-10-03T23:19:59.932Z,11.20
2018-10-03T23:22:27.771Z,11.00
2018-10-03T23:24:55.843Z,10.80
2018-10-03T23:27:23.694Z,10.70
2018-10-03T23:29:51.568Z,10.60
2018-10-03T23:32:19.430Z,10.40
2018-10-03T23:34:47.273Z,10.30
2018-10-03T23:37:15.426Z,10.10
2018-10-03T23:39:43.265Z,10.00
2018-10-03T23:42:11.332Z,9.90
2018-10-03T23:44:39.153Z,9.80
2018-10-03T23:47:07.042Z,9.70
2018-10-03T23:49:34.937Z,9.60
2018-10-03T23:52:02.756Z,9.60
2018-10-03T23:54:30.650Z,9.50
2018-10-03T23:56:58.483Z,9.60
2018-10-03T23:59:26.331Z,9.50
